createdAt,value
2018-06-18T00:01:57.460Z,46.10
2018-06-18T00:04:25.820Z,46.30
2018-06-18T00:06:54.166Z,46.20
2018-06-18T00:09:22.586Z,46.00
2018-06-18T00:11:50.920Z,45.80
2018-06-18T00:14:19.272Z,46.00
2018-06-18T00:16:47.661Z,46.10
2018-06-18T00:19:16.049Z,46.20
2018-06-18T00:21:44.518Z,46.40
2018-06-18T00:24:12.856Z,47.50
2018-06-18T00:26:41.192Z,47.40
2018-06-18T00:29:09.600Z,47.50
2018-06-18T00:31:37.940Z,48.10
2018-06-18T00:34:06.339Z,48.30
2018-06-18T00:36:34.694Z,48.50
2018-06-18T00:39:04.770Z,48.70
2018-06-18T00:41:33.242Z,48.90
2018-06-18T00:44:01.560Z,48.80
2018-06-18T00:46:29.920Z,47.40
2018-06-18T00:48:58.232Z,47.80
2018-06-18T00:51:26.620Z,48.20
2018-06-18T00:53:54.946Z,48.30
2018-06-18T00:56:23.282Z,48.20
2018-06-18T00:58:51.646Z,48.20
2018-06-18T01:01:20.065Z,48.50
2018-06-18T01:03:48.411Z,48.60
2018-06-18T01:06:16.849Z,48.90
2018-06-18T01:08:45.202Z,49.30
2018-06-18T01:11:13.662Z,49.60
2018-06-18T01:13:41.994Z,49.30
2018-06-18T01:16:10.794Z,49.10
2018-06-18T01:18:39.139Z,49.10
2018-06-18T01:21:07.979Z,49.30
2018-06-18T01:25:44.257Z,49.30
2018-06-18T01:28:12.585Z,49.40
2018-06-18T01:30:40.970Z,49.40
2018-06-18T01:33:09.891Z,48.50
2018-06-18T01:35:38.224Z,48.10
2018-06-18T01:38:06.589Z,47.90
2018-06-18T01:40:35.525Z,48.30
2018-06-18T01:43:03.971Z,48.90
2018-06-18T01:45:32.307Z,49.00
2018-06-18T01:50:28.965Z,49.70
2018-06-18T01:52:57.328Z,49.80
2018-06-18T01:55:33.136Z,49.90
2018-06-18T01:58:01.570Z,50.00
2018-06-18T02:02:58.070Z,49.20
2018-06-18T02:05:26.400Z,49.20
2018-06-18T02:10:22.987Z,49.30
2018-06-18T02:12:51.347Z,49.60
2018-06-18T02:15:19.720Z,49.70
2018-06-18T02:17:48.097Z,49.60
2018-06-18T02:20:16.443Z,49.50
2018-06-18T02:22:44.810Z,49.50
2018-06-18T02:25:13.782Z,49.80
2018-06-18T02:27:47.286Z,50.10
2018-06-18T02:30:20.892Z,50.40
2018-06-18T02:32:55.220Z,51.00
2018-06-18T02:35:28.954Z,51.00
2018-06-18T02:38:02.673Z,51.20
2018-06-18T02:43:04.514Z,51.30
2018-06-18T02:45:32.848Z,51.00
2018-06-18T02:48:01.230Z,51.00
2018-06-18T02:50:29.573Z,51.00
2018-06-18T02:52:57.959Z,51.20
2018-06-18T02:55:26.296Z,51.60
2018-06-18T02:57:54.721Z,51.80
2018-06-18T03:00:23.299Z,51.50
2018-06-18T03:05:19.945Z,51.30
2018-06-18T03:07:48.280Z,51.30
2018-06-18T03:10:16.634Z,51.50
2018-06-18T03:12:44.958Z,51.50
2018-06-18T03:15:13.310Z,51.50
2018-06-18T03:17:42.313Z,51.50
2018-06-18T03:20:16.068Z,51.50
2018-06-18T03:22:49.775Z,51.40
2018-06-18T03:27:57.043Z,51.40
2018-06-18T03:30:25.415Z,51.30
2018-06-18T03:32:53.776Z,51.10
2018-06-18T03:35:22.109Z,51.70
2018-06-18T03:37:50.868Z,51.20
2018-06-18T03:40:19.199Z,51.20
2018-06-18T03:42:47.550Z,51.30
2018-06-18T03:47:53.008Z,51.30
2018-06-18T03:50:21.377Z,51.50
2018-06-18T03:52:49.819Z,51.60
2018-06-18T03:55:27.842Z,51.60
2018-06-18T03:57:56.217Z,51.80
2018-06-18T04:00:35.387Z,51.80
2018-06-18T04:05:42.570Z,51.90
2018-06-18T04:08:11.787Z,52.00
2018-06-18T04:10:45.405Z,52.10
2018-06-18T04:13:13.809Z,52.20
2018-06-18T04:15:42.147Z,52.20
2018-06-18T04:18:10.523Z,52.20
2018-06-18T04:20:43.675Z,52.30
2018-06-18T04:23:12.000Z,52.40
2018-06-18T04:25:40.368Z,52.40
2018-06-18T04:30:36.977Z,52.60
2018-06-18T04:33:05.940Z,52.80
2018-06-18T04:35:34.289Z,52.90
2018-06-18T04:38:02.647Z,52.90
2018-06-18T04:40:31.119Z,53.00
2018-06-18T04:43:04.941Z,53.00
2018-06-18T04:45:38.595Z,53.20
2018-06-18T04:48:12.463Z,53.50
2018-06-18T04:50:46.294Z,53.60
2018-06-18T04:53:14.668Z,53.60
2018-06-18T04:58:12.247Z,53.70
2018-06-18T05:01:02.300Z,53.80
2018-06-18T05:03:30.649Z,54.00
2018-06-18T05:05:59.092Z,54.10
2018-06-18T05:09:36.977Z,54.10
2018-06-18T05:12:05.335Z,54.30
2018-06-18T05:14:33.699Z,54.30
2018-06-18T05:17:02.055Z,54.20
2018-06-18T05:19:30.393Z,53.90
2018-06-18T05:21:58.793Z,53.70
2018-06-18T05:24:27.261Z,54.10
2018-06-18T05:26:56.639Z,54.00
2018-06-18T05:29:26.813Z,53.60
2018-06-18T05:32:01.858Z,53.50
2018-06-18T05:34:31.403Z,52.90
2018-06-18T05:37:02.347Z,52.90
2018-06-18T05:39:30.712Z,52.60
2018-06-18T05:41:59.057Z,52.20
2018-06-18T05:44:27.425Z,51.90
2018-06-18T05:46:55.808Z,52.10
2018-06-18T05:49:24.145Z,51.50
2018-06-18T05:51:52.707Z,51.50
2018-06-18T05:54:27.823Z,51.30
2018-06-18T05:56:56.219Z,50.90
2018-06-18T05:59:24.558Z,51.50
2018-06-18T06:01:52.909Z,51.00
2018-06-18T06:04:21.261Z,51.60
2018-06-18T06:06:49.657Z,50.20
2018-06-18T06:09:18.044Z,50.40
2018-06-18T06:11:46.465Z,49.30
2018-06-18T06:14:14.844Z,49.60
2018-06-18T06:16:43.209Z,49.20
2018-06-18T06:19:11.571Z,49.30
2018-06-18T06:21:40.541Z,49.10
2018-06-18T06:24:08.895Z,48.80
2018-06-18T06:26:37.243Z,48.40
2018-06-18T06:29:05.603Z,48.30
2018-06-18T06:31:33.959Z,48.60
2018-06-18T06:34:02.360Z,48.50
2018-06-18T06:36:30.658Z,47.60
2018-06-18T06:38:59.043Z,48.00
2018-06-18T06:41:28.777Z,48.20
2018-06-18T06:43:57.159Z,47.50
2018-06-18T06:46:25.553Z,46.80
2018-06-18T06:48:54.058Z,46.20
2018-06-18T06:51:22.345Z,46.80
2018-06-18T06:53:51.161Z,46.00
2018-06-18T06:56:19.491Z,45.70
2018-06-18T07:03:45.083Z,45.30
2018-06-18T07:06:13.414Z,43.70
2018-06-18T07:08:41.811Z,42.70
2018-06-18T07:11:10.197Z,42.60
2018-06-18T07:13:38.668Z,42.50
2018-06-18T07:16:06.869Z,42.30
2018-06-18T07:18:35.226Z,42.60
2018-06-18T07:21:03.541Z,42.90
2018-06-18T07:23:31.917Z,42.70
2018-06-18T07:26:00.952Z,42.80
2018-06-18T07:28:29.229Z,41.90
2018-06-18T07:30:57.650Z,41.60
2018-06-18T07:33:25.945Z,41.30
2018-06-18T07:35:54.355Z,41.00
2018-06-18T07:38:22.680Z,39.90
2018-06-18T07:40:51.187Z,39.30
2018-06-18T07:43:19.557Z,38.40
2018-06-18T07:45:47.894Z,38.40
2018-06-18T07:50:51.670Z,38.50
2018-06-18T07:53:20.004Z,38.50
2018-06-18T07:55:48.454Z,38.00
2018-06-18T07:58:21.252Z,38.10
2018-06-18T08:03:18.279Z,38.60
2018-06-18T08:05:46.631Z,36.90
2018-06-18T08:08:14.993Z,36.20
2018-06-18T08:10:43.337Z,36.40
2018-06-18T08:13:11.685Z,36.80
2018-06-18T08:15:40.063Z,37.40
2018-06-18T08:20:36.700Z,36.30
2018-06-18T08:23:05.063Z,37.00
2018-06-18T08:25:33.387Z,38.20
2018-06-18T08:28:01.750Z,37.60
2018-06-18T08:30:30.071Z,37.50
2018-06-18T08:32:58.488Z,38.20
2018-06-18T08:35:26.863Z,37.20
2018-06-18T08:37:55.891Z,37.70
2018-06-18T08:40:24.263Z,38.20
2018-06-18T08:42:52.597Z,38.60
2018-06-18T08:45:21.331Z,39.00
2018-06-18T08:47:49.679Z,38.50
2018-06-18T08:50:23.443Z,39.60
2018-06-18T08:52:57.221Z,40.10
2018-06-18T08:55:30.993Z,40.20
2018-06-18T08:58:04.672Z,40.20
2018-06-18T09:00:38.420Z,40.00
2018-06-18T09:03:15.957Z,38.90
2018-06-18T09:08:24.061Z,38.80
2018-06-18T09:10:53.419Z,40.30
2018-06-18T09:13:22.122Z,37.30
2018-06-18T09:15:50.451Z,36.70
2018-06-18T09:18:18.803Z,36.90
2018-06-18T09:20:47.272Z,36.80
2018-06-18T09:23:15.614Z,37.30
2018-06-18T09:25:49.305Z,37.30
2018-06-18T09:28:18.229Z,36.00
2018-06-18T09:30:46.549Z,33.50
2018-06-18T09:35:43.524Z,33.80
2018-06-18T09:38:11.906Z,34.60
2018-06-18T09:40:40.265Z,34.60
2018-06-18T09:43:08.643Z,34.90
2018-06-18T09:45:36.989Z,35.40
2018-06-18T09:48:05.399Z,35.30
2018-06-18T09:50:39.067Z,36.10
2018-06-18T09:53:12.792Z,34.40
2018-06-18T09:55:46.510Z,34.60
2018-06-18T09:58:21.292Z,35.50
2018-06-18T10:01:01.829Z,35.70
2018-06-18T10:03:30.313Z,37.40
2018-06-18T10:05:58.719Z,36.70
2018-06-18T10:08:27.192Z,36.50
2018-06-18T10:10:55.522Z,36.70
2018-06-18T10:13:23.919Z,37.00
2018-06-18T10:15:52.388Z,36.00
2018-06-18T10:20:49.152Z,35.80
2018-06-18T10:25:45.576Z,37.20
2018-06-18T10:28:13.967Z,37.20
2018-06-18T10:30:42.366Z,36.00
2018-06-18T10:35:49.720Z,35.50
2018-06-18T10:38:23.454Z,34.80
2018-06-18T10:40:57.166Z,35.30
2018-06-18T10:43:30.352Z,34.80
2018-06-18T10:45:58.783Z,36.00
2018-06-18T10:48:27.202Z,35.20
2018-06-18T10:50:55.929Z,34.80
2018-06-18T10:53:24.572Z,34.80
2018-06-18T10:55:53.940Z,35.70
2018-06-18T10:58:24.078Z,35.30
2018-06-18T11:01:01.690Z,36.10
2018-06-18T11:03:30.123Z,35.60
2018-06-18T11:06:03.769Z,34.50
2018-06-18T11:08:32.252Z,34.20
2018-06-18T11:11:00.650Z,34.90
2018-06-18T11:13:30.124Z,34.80
2018-06-18T11:15:58.741Z,35.10
2018-06-18T11:18:32.517Z,35.40
2018-06-18T11:21:06.415Z,36.00
2018-06-18T11:23:40.940Z,36.00
2018-06-18T11:26:14.784Z,35.40
2018-06-18T11:28:43.255Z,36.50
2018-06-18T11:31:12.368Z,35.80
2018-06-18T11:33:42.370Z,34.70
2018-06-18T11:36:10.878Z,36.40
2018-06-18T11:38:39.290Z,35.00
2018-06-18T11:41:07.668Z,34.70
2018-06-18T11:43:36.060Z,34.20
2018-06-18T11:46:04.394Z,33.80
2018-06-18T11:48:32.807Z,33.40
2018-06-18T11:51:01.202Z,33.60
2018-06-18T11:55:58.006Z,34.20
2018-06-18T11:58:31.658Z,34.40
2018-06-18T12:01:05.378Z,33.60
2018-06-18T12:03:39.093Z,33.90
2018-06-18T12:06:12.782Z,34.30
2018-06-18T12:08:46.431Z,34.00
2018-06-18T12:11:14.861Z,34.80
2018-06-18T12:13:43.275Z,34.70
2018-06-18T12:16:11.616Z,35.00
2018-06-18T12:18:40.080Z,34.60
2018-06-18T12:21:08.534Z,34.10
2018-06-18T12:23:36.949Z,34.10
2018-06-18T12:26:05.280Z,34.90
2018-06-18T12:28:34.063Z,34.40
2018-06-18T12:31:02.466Z,34.60
2018-06-18T12:33:30.809Z,34.10
2018-06-18T12:38:27.278Z,34.30
2018-06-18T12:40:55.614Z,34.40
2018-06-18T12:43:26.108Z,35.00
2018-06-18T12:46:00.256Z,33.80
2018-06-18T12:51:07.528Z,34.70
2018-06-18T12:53:41.208Z,33.40
2018-06-18T12:56:15.020Z,34.40
2018-06-18T12:58:43.410Z,35.30
2018-06-18T13:01:13.478Z,34.30
2018-06-18T13:03:41.906Z,34.90
2018-06-18T13:06:10.308Z,34.30
2018-06-18T13:08:39.019Z,35.00
2018-06-18T13:11:07.442Z,35.40
2018-06-18T13:13:35.880Z,35.60
2018-06-18T13:16:04.320Z,35.80
2018-06-18T13:18:32.777Z,35.90
2018-06-18T13:21:01.202Z,36.60
2018-06-18T13:23:29.640Z,36.20
2018-06-18T13:25:58.028Z,35.50
2018-06-18T13:28:26.410Z,34.40
2018-06-18T13:30:54.801Z,34.60
2018-06-18T13:33:23.141Z,33.30
2018-06-18T13:35:51.515Z,33.30
2018-06-18T13:38:25.387Z,34.60
2018-06-18T13:40:59.149Z,34.60
2018-06-18T13:43:32.852Z,35.00
2018-06-18T13:46:06.382Z,36.30
2018-06-18T13:48:40.165Z,36.60
2018-06-18T13:51:08.624Z,36.50
2018-06-18T13:53:38.276Z,35.70
2018-06-18T13:56:06.660Z,36.90
2018-06-18T13:58:35.119Z,36.80
2018-06-18T14:01:03.450Z,36.70
2018-06-18T14:03:31.825Z,37.90
2018-06-18T14:06:00.183Z,36.70
2018-06-18T14:08:28.528Z,36.20
2018-06-18T14:10:56.918Z,36.60
2018-06-18T14:13:25.344Z,36.50
2018-06-18T14:15:53.728Z,36.70
2018-06-18T14:18:22.268Z,35.90
2018-06-18T14:20:50.631Z,35.40
2018-06-18T14:23:19.014Z,35.90
2018-06-18T14:25:47.374Z,36.50
2018-06-18T14:28:15.728Z,36.00
2018-06-18T14:30:49.212Z,37.60
2018-06-18T14:35:27.361Z,37.30
2018-06-18T14:38:01.153Z,37.50
2018-06-18T14:40:29.627Z,37.70
2018-06-18T14:42:58.562Z,38.30
2018-06-18T14:45:27.008Z,38.40
2018-06-18T14:47:55.631Z,38.70
2018-06-18T14:50:24.029Z,38.40
2018-06-18T14:52:52.450Z,38.10
2018-06-18T14:55:20.802Z,38.20
2018-06-18T15:00:20.521Z,38.40
2018-06-18T15:02:48.941Z,38.10
2018-06-18T15:05:18.004Z,38.10
2018-06-18T15:07:46.399Z,38.80
2018-06-18T15:10:14.851Z,38.40
2018-06-18T15:12:51.873Z,38.60
2018-06-18T15:15:25.563Z,38.60
2018-06-18T15:17:53.923Z,38.40
2018-06-18T15:20:22.405Z,38.30
2018-06-18T15:23:02.141Z,39.70
2018-06-18T15:27:59.927Z,38.90
2018-06-18T15:30:28.279Z,38.60
2018-06-18T15:32:56.729Z,38.60
2018-06-18T15:37:53.585Z,38.90
2018-06-18T15:40:21.949Z,39.20
2018-06-18T15:42:51.034Z,38.40
2018-06-18T15:45:22.811Z,38.90
2018-06-18T15:47:51.353Z,38.50
2018-06-18T15:50:19.916Z,39.20
2018-06-18T15:52:48.250Z,39.20
2018-06-18T15:55:16.620Z,38.60
2018-06-18T15:57:45.010Z,39.10
2018-06-18T16:00:13.457Z,39.00
2018-06-18T16:02:42.024Z,39.40
2018-06-18T16:05:11.149Z,39.10
2018-06-18T16:07:39.520Z,38.60
2018-06-18T16:10:08.511Z,39.00
2018-06-18T16:12:36.876Z,39.00
2018-06-18T16:15:05.307Z,39.00
2018-06-18T16:20:01.771Z,39.40
2018-06-18T16:22:30.197Z,39.10
2018-06-18T16:24:58.592Z,39.70
2018-06-18T16:27:26.905Z,39.80
2018-06-18T16:29:55.306Z,40.00
2018-06-18T16:32:23.664Z,40.40
2018-06-18T16:34:52.034Z,39.80
2018-06-18T16:39:49.242Z,39.70
2018-06-18T16:42:17.659Z,39.20
2018-06-18T16:44:46.033Z,39.60
2018-06-18T16:47:14.394Z,40.30
2018-06-18T16:49:42.786Z,40.20
2018-06-18T16:52:11.145Z,39.80
2018-06-18T16:54:39.534Z,39.60
2018-06-18T16:57:07.870Z,39.50
2018-06-18T16:59:36.268Z,39.50
2018-06-18T17:02:04.623Z,39.90
2018-06-18T17:04:32.968Z,39.50
2018-06-18T17:07:01.407Z,39.60
2018-06-18T17:09:29.838Z,40.10
2018-06-18T17:11:58.180Z,40.90
2018-06-18T17:14:26.557Z,40.60
2018-06-18T17:16:54.963Z,40.60
2018-06-18T17:19:23.340Z,40.70
2018-06-18T17:21:51.732Z,40.40
2018-06-18T17:24:20.137Z,40.90
2018-06-18T17:26:49.861Z,41.50
2018-06-18T17:29:18.298Z,40.70
2018-06-18T17:31:46.652Z,41.20
2018-06-18T17:34:14.988Z,41.30
2018-06-18T17:36:43.488Z,41.90
2018-06-18T17:39:13.103Z,42.00
2018-06-18T17:41:41.780Z,41.50
2018-06-18T17:44:10.381Z,42.00
2018-06-18T17:46:57.445Z,41.80
2018-06-18T17:52:01.762Z,41.80
2018-06-18T17:54:31.235Z,41.80
2018-06-18T17:56:59.804Z,41.80
2018-06-18T17:59:28.222Z,41.70
2018-06-18T20:25:23.331Z,49.30
2018-06-18T20:27:51.730Z,49.60
2018-06-18T20:30:20.108Z,50.40
2018-06-18T20:32:49.228Z,50.30
2018-06-18T20:35:25.468Z,50.20
2018-06-18T20:37:53.855Z,50.20
2018-06-18T20:40:22.180Z,50.20
2018-06-18T20:42:50.663Z,50.10
2018-06-18T20:45:19.044Z,50.10
2018-06-18T20:47:47.409Z,50.10
2018-06-18T20:50:15.803Z,50.00
2018-06-18T20:52:44.423Z,50.00
2018-06-18T20:55:12.846Z,50.10
2018-06-18T20:57:41.243Z,50.30
2018-06-18T21:00:09.673Z,50.70
2018-06-18T21:02:38.037Z,50.80
2018-06-18T21:05:06.491Z,51.00
2018-06-18T21:07:34.877Z,51.10
2018-06-18T21:10:03.231Z,51.40
2018-06-18T21:15:00.362Z,51.80
2018-06-18T21:17:28.818Z,52.10
2018-06-18T21:19:57.522Z,52.50
2018-06-18T21:22:25.914Z,52.40
2018-06-18T21:24:54.285Z,52.80
2018-06-18T21:27:22.676Z,53.20
2018-06-18T21:29:51.039Z,53.30
2018-06-18T21:32:19.438Z,53.50
2018-06-18T21:34:47.845Z,53.40
2018-06-18T21:37:17.360Z,53.50
2018-06-18T21:39:45.699Z,53.60
2018-06-18T21:42:14.071Z,53.90
2018-06-18T21:44:48.995Z,53.80
2018-06-18T21:47:17.355Z,54.00
2018-06-18T21:49:45.705Z,53.90
2018-06-18T21:52:14.105Z,54.00
2018-06-18T21:54:42.479Z,54.20
2018-06-18T21:57:10.813Z,54.60
2018-06-18T21:59:39.187Z,54.60
2018-06-18T22:02:07.600Z,54.50
2018-06-18T22:04:35.963Z,54.70
2018-06-18T22:07:04.385Z,54.90
2018-06-18T22:09:32.704Z,54.90
2018-06-18T22:12:01.040Z,55.00
2018-06-18T22:14:29.403Z,55.20
2018-06-18T22:16:57.739Z,55.40
2018-06-18T22:21:54.155Z,55.70
2018-06-18T22:24:22.521Z,55.80
2018-06-18T22:26:51.525Z,56.00
2018-06-18T22:29:19.854Z,55.80
2018-06-18T22:31:48.215Z,56.00
2018-06-18T22:34:16.639Z,55.80
2018-06-18T22:36:44.989Z,55.90
2018-06-18T22:39:13.814Z,56.20
2018-06-18T22:41:42.163Z,56.30
2018-06-18T22:44:11.004Z,56.70
2018-06-18T22:46:39.332Z,56.70
2018-06-18T22:49:07.695Z,56.80
2018-06-18T22:51:36.059Z,56.90
2018-06-18T22:54:04.414Z,57.20
2018-06-18T22:56:32.782Z,57.20
2018-06-18T22:59:01.131Z,57.30
2018-06-18T23:01:29.476Z,57.60
2018-06-18T23:03:57.783Z,57.60
2018-06-18T23:06:26.150Z,57.90
2018-06-18T23:08:54.493Z,57.90
2018-06-18T23:11:22.859Z,58.00
2018-06-18T23:13:51.253Z,58.00
2018-06-18T23:18:48.433Z,57.90
2018-06-18T23:21:16.791Z,57.90
2018-06-18T23:23:45.198Z,57.90
2018-06-18T23:26:13.528Z,57.80
2018-06-18T23:28:52.825Z,57.30
2018-06-18T23:31:21.215Z,57.80
2018-06-18T23:33:49.661Z,57.80
2018-06-18T23:36:18.027Z,57.80
2018-06-18T23:38:47.001Z,57.70
2018-06-18T23:41:21.927Z,57.70
2018-06-18T23:43:50.814Z,57.70
2018-06-18T23:46:19.310Z,57.60
2018-06-18T23:48:47.720Z,57.60
2018-06-18T23:51:16.232Z,58.20
2018-06-18T23:53:44.643Z,58.20
2018-06-18T23:56:12.984Z,58.30
2018-06-18T23:58:41.909Z,58.70
